Aviation Digital Data Service (ADDS)

Output produced by METARs form (0524 UTC 16 December 2017)
found at http://www.aviationweather.gov/adds/metars/
 
METAR text: KHWD 160522Z AUTO 24003KT 7SM FEW009 12/09 A3004 RMK AO2 T01170089
Conditions at: KHWD (HAYWARD , CA, US) observed 0522 UTC 16 December 2017
Temperature: 11.7°C (53°F)
Dewpoint: 8.9°C (48°F) [RH = 83%]
Pressure (altimeter): 30.04 inches Hg (1017.4 mb)
Winds: from the WSW (240 degrees) at 3 MPH (3 knots; 1.6 m/s)
Visibility: 7 miles (11 km)
Ceiling: at least 12,000 feet AGL
Clouds: few clouds at 900 feet AGL
Weather: automated observation with no human augmentation;
there may or may not be significant weather present at this time

METAR text: KHWD 160454Z 00000KT 7SM CLR 12/09 A3004 RMK AO2 SLP182 T01170089
Conditions at: KHWD (HAYWARD , CA, US) observed 0454 UTC 16 December 2017
Temperature: 11.7°C (53°F)
Dewpoint: 8.9°C (48°F) [RH = 83%]
Pressure (altimeter): 30.04 inches Hg (1017.4 mb)
[Sea-level pressure: 1018.2 mb]
Winds: calm
Visibility: 7 miles (11 km)
Ceiling: at least 12,000 feet AGL
Clouds: sky clear below 12,000 feet AGL
Weather: no significant weather observed at this time

METAR text: KHWD 160354Z 31003KT 6SM HZ CLR 12/09 A3005 RMK AO2 SLP186 T01170089
Conditions at: KHWD (HAYWARD , CA, US) observed 0354 UTC 16 December 2017
Temperature: 11.7°C (53°F)
Dewpoint: 8.9°C (48°F) [RH = 83%]
Pressure (altimeter): 30.05 inches Hg (1017.7 mb)
[Sea-level pressure: 1018.6 mb]
Winds: from the NW (310 degrees) at 3 MPH (3 knots; 1.6 m/s)
Visibility: 6 miles (10 km)
Ceiling: at least 12,000 feet AGL
Clouds: sky clear below 12,000 feet AGL
Weather: HZ  (haze)

METAR text: KHWD 160254Z 00000KT 5SM HZ CLR 12/07 A3004 RMK AO2 SLP183 T01220067 58007
Conditions at: KHWD (HAYWARD , CA, US) observed 0254 UTC 16 December 2017
Temperature: 12.2°C (54°F)
Dewpoint: 6.7°C (44°F) [RH = 69%]
Pressure (altimeter): 30.04 inches Hg (1017.4 mb)
[Sea-level pressure: 1018.3 mb]
Winds: calm
Visibility: 5 miles (8 km)
Ceiling: at least 12,000 feet AGL
Clouds: sky clear below 12,000 feet AGL
Weather: HZ  (haze)

METAR text: KHWD 160154Z COR 00000KT 4SM HZ SCT050 12/07 A3006 RMK AO2 SLP187 T01170067
Conditions at: KHWD (HAYWARD , CA, US) observed 0154 UTC 16 December 2017
Temperature: 11.7°C (53°F)
Dewpoint: 6.7°C (44°F) [RH = 71%]
Pressure (altimeter): 30.06 inches Hg (1018.0 mb)
[Sea-level pressure: 1018.7 mb]
Winds: calm
Visibility: 4 miles (6 km)
Ceiling: at least 12,000 feet AGL
Clouds: scattered clouds at 5000 feet AGL
Weather: HZ  (haze)

METAR text: KHWD 160054Z 00000KT 4SM HZ SCT040 13/07 A3006 RMK AO2 SLP190 T01280067
Conditions at: KHWD (HAYWARD , CA, US) observed 0054 UTC 16 December 2017
Temperature: 12.8°C (55°F)
Dewpoint: 6.7°C (44°F) [RH = 66%]
Pressure (altimeter): 30.06 inches Hg (1018.0 mb)
[Sea-level pressure: 1019.0 mb]
Winds: calm
Visibility: 4 miles (6 km)
Ceiling: at least 12,000 feet AGL
Clouds: scattered clouds at 4000 feet AGL
Weather: HZ  (haze)

METAR text: KHWD 152354Z COR 00000KT 3SM HZ SCT050 13/06 A3006 RMK AO2 SLP189 T01330061 10150 20117 56017
Conditions at: KHWD (HAYWARD , CA, US) observed 2354 UTC 15 December 2017
Temperature: 13.3°C (56°F)
Dewpoint: 6.1°C (43°F) [RH = 62%]
Pressure (altimeter): 30.06 inches Hg (1018.0 mb)
[Sea-level pressure: 1018.9 mb]
Winds: calm
Visibility: 3 miles (5 km)
Ceiling: at least 12,000 feet AGL
Clouds: scattered clouds at 5000 feet AGL
Weather: HZ  (haze)

METAR text: KHWD 152254Z 29003KT 3SM HZ CLR 14/05 A3006 RMK AO2 SLP190 T01440050
Conditions at: KHWD (HAYWARD , CA, US) observed 2254 UTC 15 December 2017
Temperature: 14.4°C (58°F)
Dewpoint: 5.0°C (41°F) [RH = 53%]
Pressure (altimeter): 30.06 inches Hg (1018.0 mb)
[Sea-level pressure: 1019.0 mb]
Winds: from the WNW (290 degrees) at 3 MPH (3 knots; 1.6 m/s)
Visibility: 3 miles (5 km)
Ceiling: at least 12,000 feet AGL
Clouds: sky clear below 12,000 feet AGL
Weather: HZ  (haze)

METAR text: KHWD 152154Z 00000KT 4SM HZ CLR 14/05 A3008 RMK AO2 SLP195 T01440050
Conditions at: KHWD (HAYWARD , CA, US) observed 2154 UTC 15 December 2017
Temperature: 14.4°C (58°F)
Dewpoint: 5.0°C (41°F) [RH = 53%]
Pressure (altimeter): 30.08 inches Hg (1018.7 mb)
[Sea-level pressure: 1019.5 mb]
Winds: calm
Visibility: 4 miles (6 km)
Ceiling: at least 12,000 feet AGL
Clouds: sky clear below 12,000 feet AGL
Weather: HZ  (haze)